sensor_id;sensor_type;location;lat;lon;timestamp;pressure;altitude;pressure_sealevel;temperature;humidity
71504;BME280;59323;50.874;7.028;2023-08-07T00:00:08;100860.03;;;13.19;100.00
71504;BME280;59323;50.874;7.028;2023-08-07T00:02:34;100856.13;;;13.17;100.00
71504;BME280;59323;50.874;7.028;2023-08-07T00:05:00;100859.94;;;13.12;100.00
71504;BME280;59323;50.874;7.028;2023-08-07T00:07:25;100860.31;;;13.11;100.00
71504;BME280;59323;50.874;7.028;2023-08-07T00:09:51;100866.13;;;13.06;100.00
71504;BME280;59323;50.874;7.028;2023-08-07T00:12:16;100868.84;;;13.02;100.00
71504;BME280;59323;50.874;7.028;2023-08-07T00:14:41;100879.28;;;12.96;100.00
71504;BME280;59323;50.874;7.028;2023-08-07T00:17:07;100882.34;;;12.91;100.00
71504;BME280;59323;50.874;7.028;2023-08-07T00:19:33;100861.25;;;12.85;100.00
71504;BME280;59323;50.874;7.028;2023-08-07T00:21:59;100875.28;;;12.83;100.00
71504;BME280;59323;50.874;7.028;2023-08-07T00:24:24;100861.16;;;12.74;100.00
71504;BME280;59323;50.874;7.028;2023-08-07T00:26:49;100867.41;;;12.75;100.00
71504;BME280;59323;50.874;7.028;2023-08-07T00:29:15;100864.25;;;12.73;100.00
71504;BME280;59323;50.874;7.028;2023-08-07T00:31:40;100877.94;;;12.76;100.00
71504;BME280;59323;50.874;7.028;2023-08-07T00:34:06;100884.16;;;12.77;100.00
71504;BME280;59323;50.874;7.028;2023-08-07T00:36:31;100886.13;;;12.76;100.00
71504;BME280;59323;50.874;7.028;2023-08-07T00:39:00;100881.44;;;12.77;100.00
71504;BME280;59323;50.874;7.028;2023-08-07T00:41:25;100874.84;;;12.78;100.00
71504;BME280;59323;50.874;7.028;2023-08-07T00:43:51;100880.69;;;12.80;100.00
71504;BME280;59323;50.874;7.028;2023-08-07T00:46:16;100878.72;;;12.77;100.00
71504;BME280;59323;50.874;7.028;2023-08-07T00:48:41;100883.81;;;12.82;100.00
71504;BME280;59323;50.874;7.028;2023-08-07T00:51:07;100873.66;;;12.79;100.00
71504;BME280;59323;50.874;7.028;2023-08-07T00:53:37;100885.78;;;12.81;100.00
71504;BME280;59323;50.874;7.028;2023-08-07T00:56:03;100888.47;;;12.78;100.00
71504;BME280;59323;50.874;7.028;2023-08-07T00:58:34;100888.09;;;12.79;100.00
71504;BME280;59323;50.874;7.028;2023-08-07T01:00:59;100884.13;;;12.73;100.00
71504;BME280;59323;50.874;7.028;2023-08-07T01:03:25;100888.09;;;12.79;100.00
71504;BME280;59323;50.874;7.028;2023-08-07T01:05:56;100894.66;;;12.75;100.00
71504;BME280;59323;50.874;7.028;2023-08-07T01:08:25;100892.66;;;12.68;100.00
71504;BME280;59323;50.874;7.028;2023-08-07T01:11:14;100885.59;;;12.63;100.00
71504;BME280;59323;50.874;7.028;2023-08-07T01:14:19;100894.94;;;12.62;100.00
71504;BME280;59323;50.874;7.028;2023-08-07T01:16:53;100896.50;;;12.63;100.00
71504;BME280;59323;50.874;7.028;2023-08-07T01:19:28;100886.34;;;12.60;100.00
71504;BME280;59323;50.874;7.028;2023-08-07T01:24:38;100897.69;;;12.66;100.00
71504;BME280;59323;50.874;7.028;2023-08-07T01:28:02;100891.88;;;12.67;100.00
71504;BME280;59323;50.874;7.028;2023-08-07T01:30:26;100888.81;;;12.73;100.00
71504;BME280;59323;50.874;7.028;2023-08-07T01:33:27;100884.53;;;12.75;100.00
71504;BME280;59323;50.874;7.028;2023-08-07T01:35:58;100891.16;;;12.74;100.00
71504;BME280;59323;50.874;7.028;2023-08-07T01:38:26;100875.94;;;12.69;100.00
71504;BME280;59323;50.874;7.028;2023-08-07T01:40:53;100895.03;;;12.73;100.00
71504;BME280;59323;50.874;7.028;2023-08-07T01:43:18;100891.16;;;12.74;100.00
71504;BME280;59323;50.874;7.028;2023-08-07T01:45:44;100897.81;;;12.77;100.00
71504;BME280;59323;50.874;7.028;2023-08-07T01:48:10;100895.50;;;12.79;100.00
71504;BME280;59323;50.874;7.028;2023-08-07T01:50:35;100892.75;;;12.79;100.00
71504;BME280;59323;50.874;7.028;2023-08-07T01:53:01;100897.06;;;12.80;100.00
71504;BME280;59323;50.874;7.028;2023-08-07T01:55:27;100890.44;;;12.81;100.00
71504;BME280;59323;50.874;7.028;2023-08-07T01:57:53;100898.31;;;12.89;100.00
71504;BME280;59323;50.874;7.028;2023-08-07T02:00:18;100900.66;;;12.91;100.00
71504;BME280;59323;50.874;7.028;2023-08-07T02:02:44;100896.38;;;12.90;100.00
71504;BME280;59323;50.874;7.028;2023-08-07T02:05:13;100906.16;;;12.94;100.00
71504;BME280;59323;50.874;7.028;2023-08-07T02:07:38;100899.91;;;12.94;100.00
71504;BME280;59323;50.874;7.028;2023-08-07T02:10:04;100912.78;;;12.93;100.00
71504;BME280;59323;50.874;7.028;2023-08-07T02:12:29;100905.38;;;12.94;100.00
71504;BME280;59323;50.874;7.028;2023-08-07T02:14:58;100911.59;;;12.94;100.00
71504;BME280;59323;50.874;7.028;2023-08-07T02:17:24;100910.84;;;12.97;99.39
71504;BME280;59323;50.874;7.028;2023-08-07T02:19:49;100920.59;;;12.98;98.92
71504;BME280;59323;50.874;7.028;2023-08-07T02:22:15;100912.81;;;12.97;99.34
71504;BME280;59323;50.874;7.028;2023-08-07T02:24:40;100919.88;;;13.01;99.18
71504;BME280;59323;50.874;7.028;2023-08-07T02:27:06;100917.47;;;12.96;98.52
71504;BME280;59323;50.874;7.028;2023-08-07T02:29:31;100907.81;;;13.02;98.96
71504;BME280;59323;50.874;7.028;2023-08-07T02:31:59;100913.28;;;13.02;98.08
71504;BME280;59323;50.874;7.028;2023-08-07T02:34:28;100920.31;;;13.07;97.99
71504;BME280;59323;50.874;7.028;2023-08-07T02:36:56;100916.41;;;13.05;98.33
71504;BME280;59323;50.874;7.028;2023-08-07T02:39:22;100910.13;;;13.00;98.08
71504;BME280;59323;50.874;7.028;2023-08-07T02:41:47;100910.16;;;13.04;97.49
71504;BME280;59323;50.874;7.028;2023-08-07T02:44:13;100918.75;;;13.06;97.10
71504;BME280;59323;50.874;7.028;2023-08-07T02:46:38;100918.38;;;13.08;97.61
71504;BME280;59323;50.874;7.028;2023-08-07T02:49:03;100928.13;;;13.09;97.71
71504;BME280;59323;50.874;7.028;2023-08-07T02:51:30;100932.81;;;13.08;97.20
71504;BME280;59323;50.874;7.028;2023-08-07T02:53:58;100928.13;;;13.09;97.59
71504;BME280;59323;50.874;7.028;2023-08-07T02:56:23;100935.09;;;13.02;99.88
71504;BME280;59323;50.874;7.028;2023-08-07T02:58:49;100945.59;;;13.00;99.81
71504;BME280;59323;50.874;7.028;2023-08-07T03:01:14;100943.59;;;12.97;100.00
71504;BME280;59323;50.874;7.028;2023-08-07T03:03:40;100936.50;;;12.89;100.00
71504;BME280;59323;50.874;7.028;2023-08-07T03:06:05;100934.84;;;12.81;100.00
71504;BME280;59323;50.874;7.028;2023-08-07T03:08:30;100939.53;;;12.81;100.00
71504;BME280;59323;50.874;7.028;2023-08-07T03:10:57;100934.00;;;12.74;100.00
71504;BME280;59323;50.874;7.028;2023-08-07T03:13:24;100932.03;;;12.70;100.00
71504;BME280;59323;50.874;7.028;2023-08-07T03:15:50;100926.13;;;12.65;100.00
71504;BME280;59323;50.874;7.028;2023-08-07T03:18:18;100931.63;;;12.68;100.00
71504;BME280;59323;50.874;7.028;2023-08-07T03:20:44;100944.84;;;12.66;100.00
71504;BME280;59323;50.874;7.028;2023-08-07T03:23:10;100931.94;;;12.63;100.00
71504;BME280;59323;50.874;7.028;2023-08-07T03:25:36;100929.19;;;12.60;100.00
71504;BME280;59323;50.874;7.028;2023-08-07T03:28:01;100929.56;;;12.58;100.00
71504;BME280;59323;50.874;7.028;2023-08-07T03:30:26;100931.94;;;12.63;100.00
71504;BME280;59323;50.874;7.028;2023-08-07T03:32:52;100945.59;;;12.63;100.00
71504;BME280;59323;50.874;7.028;2023-08-07T03:35:18;100945.16;;;12.61;100.00
71504;BME280;59323;50.874;7.028;2023-08-07T03:37:43;100932.25;;;12.55;100.00
71504;BME280;59323;50.874;7.028;2023-08-07T03:40:09;100930.25;;;12.52;100.00
71504;BME280;59323;50.874;7.028;2023-08-07T03:42:34;100926.31;;;12.46;100.00
71504;BME280;59323;50.874;7.028;2023-08-07T03:45:00;100937.16;;;12.42;100.00
71504;BME280;59323;50.874;7.028;2023-08-07T03:47:25;100939.19;;;12.49;100.00
71504;BME280;59323;50.874;7.028;2023-08-07T03:49:50;100938.78;;;12.47;100.00
71504;BME280;59323;50.874;7.028;2023-08-07T03:52:16;100942.69;;;12.49;100.00
71504;BME280;59323;50.874;7.028;2023-08-07T03:54:43;100941.53;;;12.50;100.00
71504;BME280;59323;50.874;7.028;2023-08-07T03:57:08;100936.47;;;12.49;100.00
71504;BME280;59323;50.874;7.028;2023-08-07T03:59:34;100934.09;;;12.47;100.00
71504;BME280;59323;50.874;7.028;2023-08-07T04:02:02;100944.63;;;12.49;100.00
71504;BME280;59323;50.874;7.028;2023-08-07T04:04:30;100948.47;;;12.44;100.00
71504;BME280;59323;50.874;7.028;2023-08-07T04:06:55;100953.97;;;12.48;100.00
71504;BME280;59323;50.874;7.028;2023-08-07T04:09:21;100941.09;;;12.45;100.00
71504;BME280;59323;50.874;7.028;2023-08-07T04:11:46;100943.34;;;12.39;100.00
71504;BME280;59323;50.874;7.028;2023-08-07T04:14:12;100948.44;;;12.41;100.00
71504;BME280;59323;50.874;7.028;2023-08-07T04:16:37;100955.81;;;12.40;100.00
71504;BME280;59323;50.874;7.028;2023-08-07T04:19:03;100945.59;;;12.33;100.00
71504;BME280;59323;50.874;7.028;2023-08-07T04:21:30;100954.25;;;12.39;100.00
71504;BME280;59323;50.874;7.028;2023-08-07T04:23:58;100956.19;;;12.38;100.00
71504;BME280;59323;50.874;7.028;2023-08-07T04:26:35;100959.66;;;12.35;100.00
71504;BME280;59323;50.874;7.028;2023-08-07T04:29:02;100961.56;;;12.35;100.00
71504;BME280;59323;50.874;7.028;2023-08-07T04:31:27;100967.47;;;12.37;100.00
71504;BME280;59323;50.874;7.028;2023-08-07T04:33:53;100972.84;;;12.33;100.00
71504;BME280;59323;50.874;7.028;2023-08-07T04:36:18;100968.13;;;12.30;100.00
71504;BME280;59323;50.874;7.028;2023-08-07T04:38:44;100968.09;;;12.27;100.00
71504;BME280;59323;50.874;7.028;2023-08-07T04:41:09;100962.97;;;12.22;100.00
71504;BME280;59323;50.874;7.028;2023-08-07T04:43:35;100955.56;;;12.22;100.00
71504;BME280;59323;50.874;7.028;2023-08-07T04:46:00;100962.22;;;12.25;100.00
71504;BME280;59323;50.874;7.028;2023-08-07T04:48:26;100967.69;;;12.25;100.00
71504;BME280;59323;50.874;7.028;2023-08-07T04:50:51;100964.59;;;12.26;100.00
71504;BME280;59323;50.874;7.028;2023-08-07T04:53:19;100966.16;;;12.27;100.00
71504;BME280;59323;50.874;7.028;2023-08-07T04:55:45;100970.50;;;12.32;100.00
71504;BME280;59323;50.874;7.028;2023-08-07T04:58:11;100971.22;;;12.29;100.00
71504;BME280;59323;50.874;7.028;2023-08-07T05:00:36;100968.50;;;12.29;100.00
71504;BME280;59323;50.874;7.028;2023-08-07T05:03:02;100961.06;;;12.26;100.00
71504;BME280;59323;50.874;7.028;2023-08-07T05:05:30;100967.78;;;12.32;100.00
71504;BME280;59323;50.874;7.028;2023-08-07T05:07:58;100966.97;;;12.31;100.00
71504;BME280;59323;50.874;7.028;2023-08-07T05:10:23;100973.63;;;12.34;100.00
71504;BME280;59323;50.874;7.028;2023-08-07T05:12:49;100967.09;;;12.38;100.00
71504;BME280;59323;50.874;7.028;2023-08-07T05:15:20;100971.06;;;12.45;100.00
71504;BME280;59323;50.874;7.028;2023-08-07T05:17:45;100973.41;;;12.46;100.00
71504;BME280;59323;50.874;7.028;2023-08-07T05:20:11;100970.31;;;12.48;100.00
71504;BME280;59323;50.874;7.028;2023-08-07T05:22:36;100972.31;;;12.51;100.00
71504;BME280;59323;50.874;7.028;2023-08-07T05:25:05;100971.94;;;12.52;100.00
71504;BME280;59323;50.874;7.028;2023-08-07T05:27:31;100980.53;;;12.54;100.00
71504;BME280;59323;50.874;7.028;2023-08-07T05:29:59;100969.22;;;12.52;100.00
71504;BME280;59323;50.874;7.028;2023-08-07T05:32:24;100968.84;;;12.54;100.00
71504;BME280;59323;50.874;7.028;2023-08-07T05:34:52;100968.00;;;12.50;100.00
71504;BME280;59323;50.874;7.028;2023-08-07T05:37:18;100964.97;;;12.55;100.00
71504;BME280;59323;50.874;7.028;2023-08-07T05:39:43;100969.28;;;12.59;100.00
71504;BME280;59323;50.874;7.028;2023-08-07T05:42:09;100978.38;;;12.70;100.00
71504;BME280;59323;50.874;7.028;2023-08-07T05:44:35;100988.13;;;12.72;100.00
71504;BME280;59323;50.874;7.028;2023-08-07T05:47:01;100985.81;;;12.74;100.00
71504;BME280;59323;50.874;7.028;2023-08-07T05:49:26;100977.22;;;12.72;100.00
71504;BME280;59323;50.874;7.028;2023-08-07T05:51:53;100983.50;;;12.76;100.00
71504;BME280;59323;50.874;7.028;2023-08-07T05:54:18;100992.41;;;12.73;100.00
71504;BME280;59323;50.874;7.028;2023-08-07T05:56:44;100977.66;;;12.77;100.00
71504;BME280;59323;50.874;7.028;2023-08-07T05:59:17;100990.94;;;12.79;100.00
71504;BME280;59323;50.874;7.028;2023-08-07T06:01:45;100981.16;;;12.74;100.00
71504;BME280;59323;50.874;7.028;2023-08-07T06:04:13;100983.50;;;12.76;100.00
71504;BME280;59323;50.874;7.028;2023-08-07T06:06:44;100986.19;;;12.72;100.00
71504;BME280;59323;50.874;7.028;2023-08-07T06:09:13;100987.47;;;12.82;100.00
71504;BME280;59323;50.874;7.028;2023-08-07T06:11:49;100988.63;;;12.81;100.00
71504;BME280;59323;50.874;7.028;2023-08-07T06:14:14;100994.94;;;12.88;100.00
71504;BME280;59323;50.874;7.028;2023-08-07T06:16:40;100996.44;;;12.82;100.00
71504;BME280;59323;50.874;7.028;2023-08-07T06:19:05;101008.13;;;12.83;100.00
71504;BME280;59323;50.874;7.028;2023-08-07T06:21:31;100995.22;;;12.80;100.00
71504;BME280;59323;50.874;7.028;2023-08-07T06:23:56;101007.28;;;12.79;100.00
71504;BME280;59323;50.874;7.028;2023-08-07T06:26:22;101011.19;;;12.78;100.00
71504;BME280;59323;50.874;7.028;2023-08-07T06:28:47;101010.34;;;12.74;100.00
71504;BME280;59323;50.874;7.028;2023-08-07T06:31:15;101010.28;;;12.66;100.00
71504;BME280;59323;50.874;7.028;2023-08-07T06:33:41;101005.19;;;12.65;100.00
71504;BME280;59323;50.874;7.028;2023-08-07T06:36:06;101012.91;;;12.59;100.00
71504;BME280;59323;50.874;7.028;2023-08-07T06:38:32;101017.94;;;12.57;100.00
71504;BME280;59323;50.874;7.028;2023-08-07T06:40:57;101020.63;;;12.54;100.00
71504;BME280;59323;50.874;7.028;2023-08-07T06:43:23;101031.13;;;12.52;100.00
71504;BME280;59323;50.874;7.028;2023-08-07T06:45:53;101025.25;;;12.50;100.00
71504;BME280;59323;50.874;7.028;2023-08-07T06:48:19;101027.19;;;12.49;100.00
71504;BME280;59323;50.874;7.028;2023-08-07T06:50:50;101015.00;;;12.40;100.00
71504;BME280;59323;50.874;7.028;2023-08-07T06:53:19;101021.28;;;12.44;100.00
71504;BME280;59323;50.874;7.028;2023-08-07T06:55:45;101029.78;;;12.38;100.00
71504;BME280;59323;50.874;7.028;2023-08-07T06:58:14;101032.88;;;12.37;100.00
71504;BME280;59323;50.874;7.028;2023-08-07T07:00:39;101030.53;;;12.35;100.00
71504;BME280;59323;50.874;7.028;2023-08-07T07:03:07;101037.88;;;12.35;100.00
71504;BME280;59323;50.874;7.028;2023-08-07T07:05:35;101048.72;;;12.31;100.00
71504;BME280;59323;50.874;7.028;2023-08-07T07:08:00;101036.25;;;12.30;100.00
71504;BME280;59323;50.874;7.028;2023-08-07T07:10:37;101053.81;;;12.33;100.00
71504;BME280;59323;50.874;7.028;2023-08-07T07:13:03;101054.97;;;12.32;100.00
71504;BME280;59323;50.874;7.028;2023-08-07T07:15:31;101038.88;;;12.23;100.00
71504;BME280;59323;50.874;7.028;2023-08-07T07:18:07;101041.50;;;12.16;100.00
71504;BME280;59323;50.874;7.028;2023-08-07T07:20:35;101045.44;;;12.19;100.00
71504;BME280;59323;50.874;7.028;2023-08-07T07:23:01;101055.50;;;12.15;100.00
71504;BME280;59323;50.874;7.028;2023-08-07T07:25:26;101053.19;;;12.17;100.00
71504;BME280;59323;50.874;7.028;2023-08-07T07:28:08;101057.53;;;12.21;100.00
71504;BME280;59323;50.874;7.028;2023-08-07T07:30:36;101054.03;;;12.21;100.00
71504;BME280;59323;50.874;7.028;2023-08-07T07:33:10;101055.59;;;12.22;100.00
71504;BME280;59323;50.874;7.028;2023-08-07T07:35:49;101072.47;;;12.31;100.00
71504;BME280;59323;50.874;7.028;2023-08-07T07:38:17;101068.13;;;12.26;100.00
71504;BME280;59323;50.874;7.028;2023-08-07T07:40:46;101063.47;;;12.27;100.00
71504;BME280;59323;50.874;7.028;2023-08-07T07:43:11;101071.69;;;12.30;100.00
71504;BME280;59323;50.874;7.028;2023-08-07T07:45:47;101083.88;;;12.36;100.00
71504;BME280;59323;50.874;7.028;2023-08-07T07:48:20;101095.19;;;12.38;100.00
71504;BME280;59323;50.874;7.028;2023-08-07T07:50:45;101105.34;;;12.42;100.00
71504;BME280;59323;50.874;7.028;2023-08-07T07:53:11;101099.50;;;12.40;100.00
71504;BME280;59323;50.874;7.028;2023-08-07T07:55:36;101100.28;;;12.40;100.00
71504;BME280;59323;50.874;7.028;2023-08-07T07:58:03;101093.25;;;12.39;100.00
71504;BME280;59323;50.874;7.028;2023-08-07T08:00:34;101093.19;;;12.35;100.00
71504;BME280;59323;50.874;7.028;2023-08-07T08:02:59;101106.97;;;12.46;100.00
71504;BME280;59323;50.874;7.028;2023-08-07T08:05:25;101106.63;;;12.48;100.00
71504;BME280;59323;50.874;7.028;2023-08-07T08:07:50;101100.38;;;12.47;100.00
71504;BME280;59323;50.874;7.028;2023-08-07T08:10:15;101114.47;;;12.53;100.00
71504;BME280;59323;50.874;7.028;2023-08-07T08:12:41;101110.69;;;12.61;100.00
71504;BME280;59323;50.874;7.028;2023-08-07T08:15:12;101116.56;;;12.63;100.00
71504;BME280;59323;50.874;7.028;2023-08-07T08:17:38;101124.41;;;12.68;100.00
71504;BME280;59323;50.874;7.028;2023-08-07T08:20:05;101125.66;;;12.74;100.00
71504;BME280;59323;50.874;7.028;2023-08-07T08:22:37;101121.41;;;12.77;100.00
71504;BME280;59323;50.874;7.028;2023-08-07T08:25:09;101132.84;;;12.86;100.00
71504;BME280;59323;50.874;7.028;2023-08-07T08:27:39;101125.13;;;12.91;100.00
71504;BME280;59323;50.874;7.028;2023-08-07T08:30:06;101135.34;;;12.98;100.00
71504;BME280;59323;50.874;7.028;2023-08-07T08:32:34;101133.38;;;12.98;100.00
71504;BME280;59323;50.874;7.028;2023-08-07T08:34:59;101147.16;;;13.06;100.00
71504;BME280;59323;50.874;7.028;2023-08-07T08:37:25;101134.28;;;13.06;100.00
71504;BME280;59323;50.874;7.028;2023-08-07T08:39:57;101125.72;;;13.08;100.00
71504;BME280;59323;50.874;7.028;2023-08-07T08:42:22;101147.34;;;13.20;100.00
71504;BME280;59323;50.874;7.028;2023-08-07T08:45:01;101139.94;;;13.20;100.00
71504;BME280;59323;50.874;7.028;2023-08-07T08:47:29;101158.81;;;13.32;100.00
71504;BME280;59323;50.874;7.028;2023-08-07T08:50:10;101152.16;;;13.30;100.00
71504;BME280;59323;50.874;7.028;2023-08-07T08:52:40;101167.03;;;13.36;100.00
71504;BME280;59323;50.874;7.028;2023-08-07T08:55:11;101164.25;;;13.32;100.00
71504;BME280;59323;50.874;7.028;2023-08-07T08:57:37;101148.63;;;13.29;100.00
71504;BME280;59323;50.874;7.028;2023-08-07T09:00:04;101161.63;;;13.40;100.00
71504;BME280;59323;50.874;7.028;2023-08-07T09:02:41;101178.84;;;13.47;100.00
71504;BME280;59323;50.874;7.028;2023-08-07T09:05:07;101176.53;;;13.49;100.00
71504;BME280;59323;50.874;7.028;2023-08-07T09:07:33;101173.84;;;13.53;100.00
71504;BME280;59323;50.874;7.028;2023-08-07T09:10:01;101173.94;;;13.60;100.00
71504;BME280;59323;50.874;7.028;2023-08-07T09:12:29;101182.94;;;13.64;100.00
71504;BME280;59323;50.874;7.028;2023-08-07T09:14:57;101179.13;;;13.69;100.00
71504;BME280;59323;50.874;7.028;2023-08-07T09:17:31;101192.47;;;13.77;100.00
71504;BME280;59323;50.874;7.028;2023-08-07T09:19:59;101188.66;;;13.85;100.00
71504;BME280;59323;50.874;7.028;2023-08-07T09:22:24;101191.06;;;13.94;100.00
71504;BME280;59323;50.874;7.028;2023-08-07T09:24:50;101190.34;;;14.01;100.00
71504;BME280;59323;50.874;7.028;2023-08-07T09:27:15;101206.00;;;14.04;100.00
71504;BME280;59323;50.874;7.028;2023-08-07T09:29:43;101209.22;;;14.13;100.00
71504;BME280;59323;50.874;7.028;2023-08-07T09:32:12;101197.94;;;14.18;98.68
71504;BME280;59323;50.874;7.028;2023-08-07T09:34:42;101199.94;;;14.24;98.69
71504;BME280;59323;50.874;7.028;2023-08-07T09:37:08;101212.06;;;14.27;99.36
71504;BME280;59323;50.874;7.028;2023-08-07T09:39:34;101212.16;;;14.34;97.85
71504;BME280;59323;50.874;7.028;2023-08-07T09:42:01;101217.28;;;14.39;98.26
71504;BME280;59323;50.874;7.028;2023-08-07T09:44:35;101217.69;;;14.41;97.82
71504;BME280;59323;50.874;7.028;2023-08-07T09:47:11;101220.09;;;14.46;98.08
71504;BME280;59323;50.874;7.028;2023-08-07T09:49:36;101221.72;;;14.54;95.47
71504;BME280;59323;50.874;7.028;2023-08-07T09:52:05;101226.06;;;14.59;96.33
71504;BME280;59323;50.874;7.028;2023-08-07T09:54:32;101223.41;;;14.73;97.21
71504;BME280;59323;50.874;7.028;2023-08-07T09:56:58;101232.13;;;14.89;96.13
71504;BME280;59323;50.874;7.028;2023-08-07T09:59:23;101227.53;;;15.01;93.92
71504;BME280;59323;50.874;7.028;2023-08-07T10:01:49;101235.78;;;15.11;94.55
71504;BME280;59323;50.874;7.028;2023-08-07T10:04:15;101236.63;;;15.19;93.68
71504;BME280;59323;50.874;7.028;2023-08-07T10:06:43;101241.34;;;15.26;92.67
71504;BME280;59323;50.874;7.028;2023-08-07T10:09:09;101244.03;;;15.18;92.88
71504;BME280;59323;50.874;7.028;2023-08-07T10:11:34;101246.78;;;15.18;91.68
71504;BME280;59323;50.874;7.028;2023-08-07T10:14:00;101253.03;;;15.15;93.89
71504;BME280;59323;50.874;7.028;2023-08-07T10:16:26;101246.38;;;15.16;90.87
71504;BME280;59323;50.874;7.028;2023-08-07T10:18:55;101246.41;;;15.20;92.10
71504;BME280;59323;50.874;7.028;2023-08-07T10:21:22;101251.09;;;15.19;92.40
71504;BME280;59323;50.874;7.028;2023-08-07T10:23:53;101251.91;;;15.27;91.18
71504;BME280;59323;50.874;7.028;2023-08-07T10:26:20;101246.06;;;15.32;90.43
71504;BME280;59323;50.874;7.028;2023-08-07T10:28:48;101251.59;;;15.43;90.18
71504;BME280;59323;50.874;7.028;2023-08-07T10:31:16;101247.72;;;15.54;88.68
71504;BME280;59323;50.874;7.028;2023-08-07T10:33:42;101252.53;;;15.65;90.30
71504;BME280;59323;50.874;7.028;2023-08-07T10:36:09;101241.59;;;15.79;84.28
71504;BME280;59323;50.874;7.028;2023-08-07T10:38:35;101241.63;;;15.93;86.79
71504;BME280;59323;50.874;7.028;2023-08-07T10:41:14;101238.53;;;16.16;82.92
71504;BME280;59323;50.874;7.028;2023-08-07T10:43:44;101244.06;;;16.30;81.67
71504;BME280;59323;50.874;7.028;2023-08-07T10:46:19;101255.03;;;16.30;82.38
71504;BME280;59323;50.874;7.028;2023-08-07T10:48:46;101247.59;;;16.27;81.72
71504;BME280;59323;50.874;7.028;2023-08-07T10:51:17;101253.88;;;16.38;82.63
71504;BME280;59323;50.874;7.028;2023-08-07T10:53:49;101244.84;;;16.41;80.88
71504;BME280;59323;50.874;7.028;2023-08-07T10:56:17;101247.22;;;16.57;79.86
71504;BME280;59323;50.874;7.028;2023-08-07T10:58:48;101237.00;;;16.65;79.40
71504;BME280;59323;50.874;7.028;2023-08-07T11:04:05;101241.34;;;16.76;73.85
71504;BME280;59323;50.874;7.028;2023-08-07T11:06:34;101240.16;;;16.85;74.23
71504;BME280;59323;50.874;7.028;2023-08-07T11:09:00;101246.03;;;16.87;71.65
71504;BME280;59323;50.874;7.028;2023-08-07T11:11:29;101249.97;;;16.93;69.57
71504;BME280;59323;50.874;7.028;2023-08-07T11:13:54;101252.31;;;16.91;68.50
71504;BME280;59323;50.874;7.028;2023-08-07T11:16:20;101252.69;;;16.86;70.63
71504;BME280;59323;50.874;7.028;2023-08-07T11:18:49;101259.38;;;16.81;75.27
71504;BME280;59323;50.874;7.028;2023-08-07T11:21:14;101259.38;;;16.88;77.61
71504;BME280;59323;50.874;7.028;2023-08-07T11:23:40;101264.06;;;17.09;76.60
71504;BME280;59323;50.874;7.028;2023-08-07T11:26:06;101256.50;;;17.38;73.11
71504;BME280;59323;50.874;7.028;2023-08-07T11:28:32;101252.53;;;17.67;72.61
71504;BME280;59323;50.874;7.028;2023-08-07T11:30:58;101252.03;;;17.83;69.64
71504;BME280;59323;50.874;7.028;2023-08-07T11:33:24;101259.44;;;17.93;68.33
71504;BME280;59323;50.874;7.028;2023-08-07T11:35:50;101247.63;;;18.00;68.59
71504;BME280;59323;50.874;7.028;2023-08-07T11:38:48;101249.47;;;18.17;67.11
71504;BME280;59323;50.874;7.028;2023-08-07T11:41:15;101240.34;;;18.34;67.61
71504;BME280;59323;50.874;7.028;2023-08-07T11:43:41;101248.41;;;18.56;68.58
71504;BME280;59323;50.874;7.028;2023-08-07T11:46:09;101240.78;;;18.78;67.55
71504;BME280;59323;50.874;7.028;2023-08-07T11:48:37;101239.50;;;18.89;64.21
71504;BME280;59323;50.874;7.028;2023-08-07T11:51:03;101237.56;;;18.86;62.70
71504;BME280;59323;50.874;7.028;2023-08-07T11:53:32;101233.25;;;18.82;64.08
71504;BME280;59323;50.874;7.028;2023-08-07T11:58:26;101235.44;;;19.01;62.12
71504;BME280;59323;50.874;7.028;2023-08-07T12:00:52;101255.63;;;18.91;60.54
71504;BME280;59323;50.874;7.028;2023-08-07T12:03:29;101251.91;;;18.63;59.16
71504;BME280;59323;50.874;7.028;2023-08-07T12:05:58;101247.44;;;18.32;59.59
71504;BME280;59323;50.874;7.028;2023-08-07T12:08:38;101256.13;;;18.20;58.30
71504;BME280;59323;50.874;7.028;2023-08-07T12:11:11;101255.38;;;18.16;59.96
71504;BME280;59323;50.874;7.028;2023-08-07T12:13:40;101256.88;;;18.31;57.70
71504;BME280;59323;50.874;7.028;2023-08-07T12:16:06;101256.78;;;18.42;56.71
71504;BME280;59323;50.874;7.028;2023-08-07T12:18:33;101248.03;;;18.54;57.58
71504;BME280;59323;50.874;7.028;2023-08-07T12:21:01;101235.03;;;18.58;56.63
71504;BME280;59323;50.874;7.028;2023-08-07T12:23:26;101252.59;;;18.75;58.10
71504;BME280;59323;50.874;7.028;2023-08-07T12:25:52;101251.25;;;18.93;55.43
71504;BME280;59323;50.874;7.028;2023-08-07T12:28:18;101229.22;;;18.93;55.05
71504;BME280;59323;50.874;7.028;2023-08-07T12:30:45;101245.41;;;18.88;54.70
71504;BME280;59323;50.874;7.028;2023-08-07T12:33:11;101225.47;;;18.73;54.91
71504;BME280;59323;50.874;7.028;2023-08-07T12:35:36;101248.38;;;18.63;55.59
71504;BME280;59323;50.874;7.028;2023-08-07T12:38:02;101242.56;;;18.50;56.30
71504;BME280;59323;50.874;7.028;2023-08-07T12:40:29;101241.00;;;18.49;55.77
71504;BME280;59323;50.874;7.028;2023-08-07T12:42:55;101234.22;;;18.61;54.81
71504;BME280;59323;50.874;7.028;2023-08-07T12:45:21;101240.13;;;18.63;54.02
71504;BME280;59323;50.874;7.028;2023-08-07T12:47:46;101243.28;;;18.58;55.51
71504;BME280;59323;50.874;7.028;2023-08-07T12:50:12;101241.78;;;18.50;55.57
71504;BME280;59323;50.874;7.028;2023-08-07T12:52:38;101244.97;;;18.45;56.98